Time;durP1;ratioP1;P1;durP2;ratioP2;P2;SDS_P1;SDS_P2;PMS_P1;PMS_P2;Temp;Humidity;BMP_temperature;BMP_pressure;BME280_temperature;BME280_humidity;BME280_pressure;Samples;Min_cycle;Max_cycle;Signal;HPM_P1;HPM_P2
2021/04/15 00:01:24;;;;;;;13.43;10.15;;;4.00;69.40;;;;;;5071966;28;20277;-71
2021/04/15 00:03:53;;;;;;;12.13;10.52;;;3.90;69.80;;;;;;5059647;28;20186;-70
2021/04/15 00:06:30;;;;;;;11.45;9.88;;;3.80;70.90;;;;;;5052019;28;20226;-70
2021/04/15 00:08:58;;;;;;;12.75;8.65;;;3.80;71.00;;;;;;5062881;28;20225;-70
2021/04/15 00:11:33;;;;;;;12.80;9.98;;;3.80;71.00;;;;;;5071626;28;20190;-71
2021/04/15 00:14:06;;;;;;;12.00;9.80;;;3.80;71.00;;;;;;5063188;28;20276;-71
2021/04/15 00:16:35;;;;;;;11.48;10.10;;;3.70;71.30;;;;;;5055638;28;20236;-71
2021/04/15 00:19:05;;;;;;;12.00;8.23;;;3.60;72.10;;;;;;5056020;28;20193;-71
2021/04/15 00:21:32;;;;;;;10.35;9.02;;;3.50;72.80;;;;;;5055664;28;20193;-70
2021/04/15 00:24:04;;;;;;;10.18;8.90;;;3.40;72.70;;;;;;5065053;28;20194;-70
2021/04/15 00:26:37;;;;;;;10.80;8.77;;;3.40;72.60;;;;;;5075404;28;20194;-70
2021/04/15 00:29:05;;;;;;;10.10;8.82;;;3.30;72.80;;;;;;5064641;28;20190;-71
2021/04/15 00:31:34;;;;;;;16.05;9.80;;;3.30;73.40;;;;;;5055146;28;20647;-71
2021/04/15 00:34:05;;;;;;;11.43;8.82;;;3.30;73.90;;;;;;5063735;28;20177;-71
2021/04/15 00:36:33;;;;;;;11.93;9.85;;;3.20;74.10;;;;;;5075502;28;20297;-71
2021/04/15 00:39:00;;;;;;;12.60;10.50;;;3.20;75.10;;;;;;5066727;28;20273;-70
2021/04/15 00:41:27;;;;;;;11.57;9.98;;;3.30;75.40;;;;;;5055051;28;20290;-71
2021/04/15 00:44:00;;;;;;;12.77;9.73;;;3.40;75.30;;;;;;5061455;28;20268;-71
2021/04/15 00:46:57;;;;;;;11.00;9.77;;;3.50;74.70;;;;;;5075301;28;20665;-70
2021/04/15 00:49:29;;;;;;;10.98;9.45;;;3.50;74.30;;;;;;5072859;28;20243;-71
2021/04/15 00:52:01;;;;;;;18.52;11.55;;;3.60;74.10;;;;;;5075158;28;20190;-70
2021/04/15 00:54:35;;;;;;;12.88;11.00;;;3.60;73.70;;;;;;5064734;28;20641;-70
2021/04/15 00:57:10;;;;;;;13.68;10.45;;;3.50;73.30;;;;;;5054758;28;20189;-71
2021/04/15 00:59:37;;;;;;;15.52;11.27;;;3.50;73.90;;;;;;5065022;28;20844;-70
2021/04/15 01:02:04;;;;;;;12.02;9.82;;;3.50;74.30;;;;;;5075081;28;20553;-70
2021/04/15 01:04:36;;;;;;;10.65;8.20;;;3.50;74.50;;;;;;5065012;28;20210;-71
2021/04/15 01:07:13;;;;;;;11.65;8.70;;;3.60;74.00;;;;;;5054479;28;20200;-70
2021/04/15 01:09:52;;;;;;;11.65;10.02;;;3.60;73.00;;;;;;5063197;28;20298;-70
2021/04/15 01:12:46;;;;;;;10.95;9.85;;;3.60;73.10;;;;;;5074446;28;20712;-70
2021/04/15 01:15:29;;;;;;;9.98;8.75;;;3.60;73.10;;;;;;5059229;28;20660;-71
2021/04/15 01:18:02;;;;;;;11.20;9.38;;;3.60;73.60;;;;;;5054572;28;20236;-71
2021/04/15 01:21:02;;;;;;;11.93;10.57;;;3.60;73.50;;;;;;5070187;28;20216;-70
2021/04/15 01:23:37;;;;;;;12.45;9.82;;;3.60;73.50;;;;;;5065682;28;20218;-70
2021/04/15 01:26:32;;;;;;;10.63;8.85;;;3.60;73.30;;;;;;5053973;28;20221;-70
2021/04/15 01:29:21;;;;;;;10.60;9.25;;;3.50;73.70;;;;;;5064803;28;20193;-70
2021/04/15 01:32:11;;;;;;;13.40;9.80;;;3.50;74.10;;;;;;5074546;28;20221;-71
2021/04/15 01:34:45;;;;;;;10.80;9.27;;;3.60;74.20;;;;;;5071403;28;20194;-71
2021/04/15 01:37:30;;;;;;;11.18;9.20;;;3.60;74.10;;;;;;5074150;28;20193;-70
2021/04/15 01:40:06;;;;;;;12.25;9.32;;;3.60;74.00;;;;;;5034094;28;20194;-70
2021/04/15 01:42:37;;;;;;;10.30;9.20;;;3.60;73.30;;;;;;5054224;28;20185;-71
2021/04/15 01:45:12;;;;;;;10.18;8.43;;;3.60;72.80;;;;;;5074281;28;20223;-70
2021/04/15 01:47:44;;;;;;;11.07;9.40;;;3.60;73.00;;;;;;5063060;28;20381;-71
2021/04/15 01:50:18;;;;;;;12.57;9.63;;;3.60;72.70;;;;;;5053863;28;20240;-70
2021/04/15 01:52:49;;;;;;;9.77;8.70;;;3.60;73.20;;;;;;5064356;28;20188;-70
2021/04/15 01:55:22;;;;;;;11.00;8.88;;;3.60;72.80;;;;;;5073911;28;20193;-69
2021/04/15 01:58:03;;;;;;;12.98;9.65;;;3.60;72.40;;;;;;5062339;28;20186;-69
2021/04/15 02:00:33;;;;;;;12.18;10.02;;;3.60;72.40;;;;;;5053760;28;20280;-70
2021/04/15 02:03:03;;;;;;;12.23;9.77;;;3.50;72.50;;;;;;5052384;28;20202;-70
2021/04/15 02:05:37;;;;;;;14.15;10.32;;;3.50;72.50;;;;;;5053444;28;20222;-69
2021/04/15 02:08:08;;;;;;;12.30;10.32;;;3.50;73.20;;;;;;5063957;28;20423;-69
2021/04/15 02:10:47;;;;;;;13.80;9.90;;;3.60;73.60;;;;;;5073417;28;20679;-70
2021/04/15 02:13:17;;;;;;;14.00;9.82;;;3.60;74.00;;;;;;5060306;28;20187;-71
2021/04/15 02:15:48;;;;;;;13.50;11.20;;;3.60;73.70;;;;;;5053484;28;20194;-71
2021/04/15 02:18:22;;;;;;;12.40;10.32;;;3.70;73.90;;;;;;5067910;28;20186;-71
2021/04/15 02:20:59;;;;;;;11.82;10.05;;;3.70;73.90;;;;;;5073512;28;20596;-70
2021/04/15 02:23:35;;;;;;;13.63;10.13;;;3.70;74.10;;;;;;5057090;28;20193;-71
2021/04/15 02:26:11;;;;;;;11.55;10.05;;;3.70;73.50;;;;;;5053335;28;20688;-70
2021/04/15 02:28:48;;;;;;;13.10;11.80;;;3.70;74.00;;;;;;5069275;28;20197;-71
2021/04/15 02:31:20;;;;;;;13.77;11.10;;;3.70;73.20;;;;;;5073122;28;20189;-70
2021/04/15 02:33:55;;;;;;;14.07;12.07;;;3.70;73.60;;;;;;5054362;28;20589;-70
2021/04/15 02:36:27;;;;;;;15.07;12.02;;;3.70;73.60;;;;;;5052125;28;20726;-70
2021/04/15 02:39:05;;;;;;;14.98;12.80;;;3.80;73.40;;;;;;5071277;28;20540;-70
2021/04/15 02:41:33;;;;;;;13.30;10.73;;;3.80;73.50;;;;;;5072816;28;20189;-71
2021/04/15 02:44:10;;;;;;;12.43;10.85;;;3.80;73.30;;;;;;5053348;28;20229;-70
2021/04/15 02:46:45;;;;;;;11.88;10.57;;;3.80;73.20;;;;;;5032737;28;20272;-71
2021/04/15 02:49:17;;;;;;;14.25;12.18;;;3.80;73.10;;;;;;5032860;28;20281;-70
2021/04/15 02:51:47;;;;;;;13.95;11.05;;;3.80;72.60;;;;;;5072012;28;20186;-71
2021/04/15 02:54:24;;;;;;;13.10;10.50;;;3.70;71.50;;;;;;5072139;28;20193;-70
2021/04/15 02:56:56;;;;;;;13.85;11.00;;;3.60;71.90;;;;;;5032792;28;20676;-71
2021/04/15 02:59:28;;;;;;;13.30;10.40;;;3.50;72.80;;;;;;5068118;28;20194;-71
2021/04/15 03:02:15;;;;;;;12.05;9.77;;;3.50;71.90;;;;;;5072716;28;20233;-70
2021/04/15 03:04:52;;;;;;;15.75;11.98;;;3.40;70.90;;;;;;5067894;28;20572;-71
2021/04/15 03:07:22;;;;;;;12.45;10.60;;;3.40;71.60;;;;;;5052350;28;20238;-71
2021/04/15 03:10:00;;;;;;;20.45;12.90;;;3.20;71.70;;;;;;5032808;28;20198;-70
2021/04/15 03:12:47;;;;;;;17.60;11.82;;;3.10;72.00;;;;;;5032571;28;20186;-70
2021/04/15 03:15:18;;;;;;;13.45;11.30;;;3.00;72.40;;;;;;5047568;28;20188;-71
2021/04/15 03:17:52;;;;;;;15.88;11.70;;;2.90;73.10;;;;;;5070531;28;20624;-71
2021/04/15 03:20:28;;;;;;;15.32;12.07;;;2.80;74.20;;;;;;5052350;28;20191;-71
2021/04/15 03:23:01;;;;;;;16.15;11.73;;;2.70;75.20;;;;;;5054544;28;20182;-70
2021/04/15 03:25:33;;;;;;;14.02;12.15;;;2.70;75.20;;;;;;5062849;28;20228;-71
2021/04/15 03:28:08;;;;;;;11.98;10.40;;;2.70;74.70;;;;;;5054664;28;20199;-71
2021/04/15 03:30:52;;;;;;;12.48;9.45;;;2.70;74.70;;;;;;5072404;28;20189;-70
2021/04/15 03:33:25;;;;;;;13.23;9.70;;;2.70;73.70;;;;;;5066960;28;20193;-70
2021/04/15 03:36:02;;;;;;;11.88;9.90;;;2.70;71.90;;;;;;5063612;28;20189;-71
2021/04/15 03:38:35;;;;;;;11.30;9.60;;;2.60;70.90;;;;;;5058928;28;20186;-71
2021/04/15 03:41:11;;;;;;;10.70;9.40;;;2.50;71.10;;;;;;5052381;28;20190;-71
2021/04/15 03:43:48;;;;;;;13.23;10.48;;;2.40;71.80;;;;;;5057410;28;20186;-71
2021/04/15 03:46:22;;;;;;;13.30;10.57;;;2.40;72.00;;;;;;5052487;28;20293;-71
2021/04/15 03:48:55;;;;;;;14.13;10.20;;;2.30;72.10;;;;;;5069337;28;20565;-70
2021/04/15 03:51:35;;;;;;;13.57;10.40;;;2.30;72.60;;;;;;5076053;28;20198;-71
2021/04/15 03:54:08;;;;;;;14.05;11.68;;;2.30;72.60;;;;;;5056348;28;20201;-70
2021/04/15 03:56:40;;;;;;;12.75;10.20;;;2.20;72.40;;;;;;5056115;28;20309;-71
2021/04/15 03:59:19;;;;;;;12.88;10.60;;;2.20;72.90;;;;;;5075269;28;20193;-70
2021/04/15 04:01:50;;;;;;;11.50;9.45;;;2.20;73.10;;;;;;5076213;28;20200;-70
2021/04/15 04:04:38;;;;;;;13.25;11.23;;;2.10;73.00;;;;;;5036315;28;20187;-71
2021/04/15 04:07:11;;;;;;;12.75;10.73;;;2.10;72.50;;;;;;5039593;28;20191;-70
2021/04/15 04:09:42;;;;;;;12.98;10.73;;;2.10;72.30;;;;;;5076107;28;20290;-71
2021/04/15 04:12:15;;;;;;;25.33;18.05;;;2.00;72.00;;;;;;5076141;28;20201;-71
2021/04/15 04:14:54;;;;;;;18.35;14.40;;;2.00;72.50;;;;;;5075993;28;20575;-70
2021/04/15 04:17:28;;;;;;;18.17;12.57;;;2.00;73.20;;;;;;5072070;28;20201;-70
2021/04/15 04:19:57;;;;;;;11.95;10.38;;;2.00;72.60;;;;;;5055713;28;20202;-70
2021/04/15 04:22:34;;;;;;;13.45;10.75;;;1.90;72.80;;;;;;5058429;28;20182;-70
2021/04/15 04:25:10;;;;;;;13.43;10.85;;;2.00;73.20;;;;;;5075942;28;20209;-70
2021/04/15 04:27:45;;;;;;;12.32;9.70;;;1.90;73.80;;;;;;5069648;28;20549;-70
2021/04/15 04:30:24;;;;;;;11.98;9.65;;;1.90;74.20;;;;;;5055818;28;20198;-71
2021/04/15 04:32:59;;;;;;;11.93;10.18;;;2.00;75.00;;;;;;5069370;28;20196;-71
2021/04/15 04:35:35;;;;;;;13.18;11.13;;;2.10;75.30;;;;;;5075553;28;20195;-71
2021/04/15 04:38:06;;;;;;;10.60;9.00;;;2.10;73.70;;;;;;5073617;28;20186;-71
2021/04/15 04:40:38;;;;;;;12.10;10.25;;;2.10;74.00;;;;;;5075592;28;20575;-70
2021/04/15 04:43:13;;;;;;;13.02;10.38;;;2.20;74.10;;;;;;5060352;28;20583;-70
2021/04/15 04:45:40;;;;;;;12.00;9.80;;;2.30;74.00;;;;;;5055927;28;20607;-70
2021/04/15 04:48:19;;;;;;;11.90;9.25;;;2.40;73.60;;;;;;5069330;28;20193;-71
2021/04/15 04:51:11;;;;;;;13.23;10.65;;;2.40;72.90;;;;;;5075595;28;20221;-70
2021/04/15 04:53:41;;;;;;;13.98;10.48;;;2.40;73.20;;;;;;5056935;28;20187;-70
2021/04/15 04:56:22;;;;;;;12.75;9.82;;;2.50;73.30;;;;;;5053583;28;20518;-70
2021/04/15 04:58:51;;;;;;;11.98;10.68;;;2.50;73.30;;;;;;5053572;28;20183;-70
2021/04/15 05:01:19;;;;;;;10.95;8.90;;;2.60;73.20;;;;;;5052570;28;20197;-70
2021/04/15 05:03:46;;;;;;;11.40;10.30;;;2.60;72.70;;;;;;5053823;28;20187;-70
2021/04/15 05:06:23;;;;;;;12.57;11.05;;;2.60;72.10;;;;;;5053747;28;20261;-70
2021/04/15 05:08:58;;;;;;;13.65;11.50;;;2.60;72.70;;;;;;5052941;28;20234;-70
2021/04/15 05:11:29;;;;;;;15.25;13.05;;;2.60;73.40;;;;;;5052913;28;20293;-70
2021/04/15 05:13:59;;;;;;;44.30;27.10;;;2.60;73.30;;;;;;5053083;28;20186;-70
2021/04/15 05:16:37;;;;;;;19.98;14.73;;;2.70;73.60;;;;;;5055143;28;20694;-70
2021/04/15 05:19:04;;;;;;;13.10;10.75;;;2.80;73.80;;;;;;5053167;28;20194;-70
2021/04/15 05:21:33;;;;;;;13.13;10.45;;;2.90;75.00;;;;;;5053660;28;20216;-70
2021/04/15 05:24:07;;;;;;;12.75;10.77;;;3.00;74.50;;;;;;5053075;28;20236;-70
2021/04/15 05:26:37;;;;;;;14.23;11.57;;;3.10;73.80;;;;;;5052923;28;20219;-70
2021/04/15 05:29:06;;;;;;;22.08;14.23;;;3.10;73.10;;;;;;5048681;28;20201;-70
2021/04/15 05:31:42;;;;;;;17.13;15.25;;;3.00;73.00;;;;;;5053836;28;20187;-70
2021/04/15 05:34:20;;;;;;;20.15;16.50;;;3.10;72.20;;;;;;5052564;28;20198;-70
2021/04/15 05:37:39;;;;;;;14.95;12.93;;;3.10;72.40;;;;;;5053929;28;20248;-72
2021/04/15 05:40:15;;;;;;;15.48;12.70;;;3.20;72.80;;;;;;5049233;28;20193;-73
2021/04/15 05:42:52;;;;;;;12.45;11.15;;;3.30;72.40;;;;;;5052903;28;20250;-73
2021/04/15 05:45:24;;;;;;;12.90;10.27;;;3.40;72.30;;;;;;5053524;28;20217;-73
2021/04/15 05:47:56;;;;;;;16.63;13.25;;;3.40;71.20;;;;;;5052632;28;20187;-70
2021/04/15 05:50:31;;;;;;;15.07;11.65;;;3.40;71.50;;;;;;5045532;28;20205;-71
2021/04/15 05:53:03;;;;;;;14.60;12.43;;;3.50;71.90;;;;;;5050775;28;20617;-70
2021/04/15 05:55:33;;;;;;;13.23;11.70;;;3.60;71.40;;;;;;5052150;28;20213;-71
2021/04/15 05:58:06;;;;;;;16.77;12.77;;;3.70;71.00;;;;;;5052412;28;20237;-71
2021/04/15 06:00:41;;;;;;;14.57;12.38;;;3.70;70.90;;;;;;5052328;28;20183;-71
2021/04/15 06:03:24;;;;;;;27.10;19.48;;;3.80;71.60;;;;;;5052410;28;20190;-71
2021/04/15 06:05:58;;;;;;;27.65;17.05;;;3.90;70.90;;;;;;5051465;28;20705;-71
2021/04/15 06:08:29;;;;;;;16.98;14.30;;;3.90;70.40;;;;;;5052623;28;20779;-71
2021/04/15 06:11:08;;;;;;;16.23;13.38;;;4.00;71.40;;;;;;5052096;28;20198;-71
2021/04/15 06:13:43;;;;;;;15.05;12.73;;;4.10;71.80;;;;;;5052161;28;20189;-71
2021/04/15 06:16:17;;;;;;;15.25;12.35;;;4.10;72.40;;;;;;5051934;28;20288;-71
2021/04/15 06:18:50;;;;;;;14.63;12.35;;;4.10;71.70;;;;;;5055248;28;20194;-71
2021/04/15 06:21:21;;;;;;;14.88;13.30;;;4.10;71.10;;;;;;5052348;28;20186;-70
2021/04/15 06:23:57;;;;;;;16.35;13.75;;;4.20;71.70;;;;;;5052185;28;20568;-71
2021/04/15 06:26:29;;;;;;;14.10;12.60;;;4.20;70.90;;;;;;5049751;28;20695;-72
2021/04/15 06:28:59;;;;;;;17.25;13.48;;;4.20;70.20;;;;;;5050444;28;20221;-72
2021/04/15 06:31:30;;;;;;;14.95;11.50;;;4.20;70.40;;;;;;5057477;28;20264;-70
2021/04/15 06:34:01;;;;;;;14.98;12.48;;;4.20;71.00;;;;;;5054694;28;20186;-71
2021/04/15 06:36:34;;;;;;;16.35;12.90;;;4.20;71.10;;;;;;5056077;28;20185;-71
2021/04/15 06:39:10;;;;;;;14.90;12.55;;;4.20;71.00;;;;;;5051501;28;20278;-71
2021/04/15 06:42:01;;;;;;;14.52;11.38;;;4.20;71.20;;;;;;5053805;28;20600;-71
2021/04/15 06:45:06;;;;;;;15.90;12.20;;;4.30;71.50;;;;;;5053794;28;20234;-71
2021/04/15 06:47:47;;;;;;;12.90;9.80;;;4.40;70.50;;;;;;5012571;28;20195;-71
2021/04/15 06:50:23;;;;;;;13.93;10.48;;;4.40;70.40;;;;;;5047434;28;20193;-71
2021/04/15 06:53:31;;;;;;;12.25;10.93;;;4.50;69.30;;;;;;5053271;28;20202;-71
2021/04/15 06:56:15;;;;;;;12.90;10.85;;;4.50;68.90;;;;;;5054293;28;20197;-70
2021/04/15 06:58:58;;;;;;;10.88;9.23;;;4.60;68.00;;;;;;5067249;28;20193;-69
2021/04/15 07:01:54;;;;;;;17.42;10.75;;;4.60;68.10;;;;;;5070377;28;20662;-70
2021/04/15 07:04:24;;;;;;;12.90;9.23;;;4.70;68.40;;;;;;5071051;28;20190;-70
2021/04/15 07:07:03;;;;;;;13.23;9.93;;;4.70;68.70;;;;;;5070942;28;20249;-70
2021/04/15 07:10:00;;;;;;;12.43;10.15;;;4.80;67.50;;;;;;5072743;28;20250;-70
2021/04/15 07:13:07;;;;;;;15.43;9.40;;;4.90;67.10;;;;;;5061569;28;20637;-70
2021/04/15 07:16:04;;;;;;;11.48;9.70;;;5.00;67.10;;;;;;5032870;28;20191;-70
2021/04/15 07:18:57;;;;;;;12.55;9.98;;;5.10;67.10;;;;;;5070252;28;20193;-70
2021/04/15 07:22:00;;;;;;;14.63;9.77;;;5.10;67.10;;;;;;5071305;28;20190;-69
2021/04/15 07:24:50;;;;;;;17.42;10.75;;;5.20;66.90;;;;;;5061442;28;20717;-70
2021/04/15 07:27:44;;;;;;;11.30;9.82;;;5.30;67.00;;;;;;5065136;28;20179;-70
2021/04/15 07:30:30;;;;;;;11.32;9.38;;;5.40;67.20;;;;;;5052687;28;20194;-70
2021/04/15 07:33:30;;;;;;;11.40;9.35;;;5.60;66.80;;;;;;5064654;28;20190;-70
2021/04/15 07:36:34;;;;;;;12.32;10.13;;;5.70;66.20;;;;;;5032896;28;20310;-70
2021/04/15 07:39:22;;;;;;;11.98;9.05;;;6.00;65.50;;;;;;5068055;28;20193;-70
2021/04/15 07:42:21;;;;;;;11.18;8.45;;;6.20;64.50;;;;;;5070984;28;20185;-70
2021/04/15 07:44:53;;;;;;;10.77;8.48;;;6.30;62.60;;;;;;5054808;28;20193;-70
2021/04/15 07:48:01;;;;;;;13.88;8.98;;;6.50;62.10;;;;;;5052556;28;20194;-70
2021/04/15 07:51:06;;;;;;;14.05;8.60;;;6.60;61.50;;;;;;5033607;28;20693;-70
2021/04/15 07:53:56;;;;;;;11.52;9.27;;;6.80;60.20;;;;;;5032130;28;20191;-71
2021/04/15 07:57:16;;;;;;;12.88;9.07;;;7.10;59.40;;;;;;5044690;28;20186;-70
2021/04/15 08:00:04;;;;;;;10.55;9.15;;;7.30;59.50;;;;;;5037800;28;20190;-70
2021/04/15 08:02:52;;;;;;;11.88;9.45;;;7.50;56.80;;;;;;5071446;28;20229;-70
2021/04/15 08:05:59;;;;;;;11.60;9.80;;;7.80;56.70;;;;;;5052301;28;20233;-70
2021/04/15 08:09:11;;;;;;;13.00;9.15;;;7.90;55.50;;;;;;5054854;28;20246;-70
2021/04/15 08:12:19;;;;;;;9.85;7.97;;;8.00;55.90;;;;;;5042407;28;20190;-70
2021/04/15 08:15:15;;;;;;;11.93;10.00;;;8.20;56.40;;;;;;5022140;28;20191;-70
2021/04/15 08:18:03;;;;;;;11.27;9.43;;;8.40;54.30;;;;;;5016487;28;20552;-70
2021/04/15 08:20:54;;;;;;;12.60;9.07;;;8.90;59.80;;;;;;5072435;28;20208;-70
2021/04/15 08:23:49;;;;;;;11.15;9.05;;;10.10;67.80;;;;;;5068918;28;20190;-70
2021/04/15 08:26:54;;;;;;;11.30;9.02;;;11.40;55.70;;;;;;5072327;28;20306;-70
2021/04/15 08:29:40;;;;;;;12.63;10.13;;;12.80;58.30;;;;;;5032463;28;20202;-71
2021/04/15 08:32:19;;;;;;;10.32;8.90;;;14.00;53.80;;;;;;5036637;28;20196;-71
2021/04/15 08:34:56;;;;;;;9.43;8.48;;;15.00;48.20;;;;;;5055102;28;20201;-71
2021/04/15 08:37:46;;;;;;;9.98;8.27;;;15.60;42.00;;;;;;5056588;28;20186;-71
2021/04/15 08:40:27;;;;;;;9.53;7.17;;;16.20;41.30;;;;;;5055601;28;20205;-71
2021/04/15 08:43:06;;;;;;;7.90;4.63;;;16.70;37.30;;;;;;5064613;28;20926;-71
2021/04/15 08:45:38;;;;;;;6.60;4.50;;;17.00;36.50;;;;;;5075806;28;20876;-71
2021/04/15 08:48:29;;;;;;;4.33;3.90;;;17.30;36.00;;;;;;5065258;28;20870;-71
2021/04/15 08:51:03;;;;;;;3.80;2.97;;;17.60;31.60;;;;;;5056851;28;20445;-71
2021/04/15 08:53:58;;;;;;;3.80;2.47;;;17.60;30.30;;;;;;5055790;28;20454;-71
2021/04/15 08:56:30;;;;;;;3.67;2.27;;;17.80;26.10;;;;;;5060773;28;20432;-71
2021/04/15 08:59:29;;;;;;;6.37;2.90;;;17.90;25.40;;;;;;5075470;28;20429;-72
2021/04/15 09:02:07;;;;;;;5.00;3.20;;;18.30;26.50;;;;;;5067852;28;20470;-72
2021/04/15 09:04:58;;;;;;;6.67;3.90;;;18.50;26.00;;;;;;5074973;28;20461;-72
2021/04/15 09:07:34;;;;;;;8.83;4.10;;;18.60;27.80;;;;;;5062397;28;20467;-72
2021/04/15 09:10:14;;;;;;;4.60;3.73;;;19.20;29.60;;;;;;5055069;28;20425;-72
2021/04/15 09:13:22;;;;;;;5.03;4.23;;;19.40;23.60;;;;;;5069311;28;20969;-71
2021/04/15 09:16:08;;;;;;;5.10;4.50;;;18.60;24.00;;;;;;5041200;28;20490;-72
2021/04/15 09:18:39;;;;;;;5.37;4.87;;;18.00;25.20;;;;;;5075005;28;20914;-71
2021/04/15 09:21:21;;;;;;;7.30;5.07;;;17.60;25.70;;;;;;5064254;28;20445;-72
2021/04/15 09:23:55;;;;;;;6.63;5.00;;;17.20;25.10;;;;;;5060070;28;20432;-71
2021/04/15 09:26:33;;;;;;;9.17;6.00;;;16.70;25.10;;;;;;5074913;28;20914;-71
2021/04/15 09:29:12;;;;;;;9.50;6.17;;;16.10;24.70;;;;;;5067363;28;20951;-71
2021/04/15 09:31:53;;;;;;;9.17;6.30;;;15.50;25.10;;;;;;5065437;28;20444;-71
2021/04/15 09:34:56;;;;;;;7.00;6.30;;;15.00;26.10;;;;;;5068781;28;20444;-72
2021/04/15 09:38:13;;;;;;;9.63;6.67;;;14.90;30.20;;;;;;5074729;28;20443;-71
2021/04/15 09:41:13;;;;;;;7.80;6.00;;;15.60;30.70;;;;;;5053626;28;20443;-72
2021/04/15 09:44:16;;;;;;;5.40;4.90;;;16.30;27.80;;;;;;5050429;28;20503;-70
2021/04/15 09:46:56;;;;;;;7.07;6.03;;;17.10;28.00;;;;;;5058096;28;20512;-71
2021/04/15 09:49:36;;;;;;;8.70;5.03;;;17.70;28.80;;;;;;5049348;28;20511;-70
2021/04/15 09:52:31;;;;;;;5.87;5.27;;;18.40;29.10;;;;;;5054123;28;20947;-72
2021/04/15 09:55:14;;;;;;;6.87;5.63;;;19.00;25.90;;;;;;5047539;28;20445;-71
2021/04/15 09:57:50;;;;;;;7.47;5.53;;;19.50;25.20;;;;;;5051916;28;20460;-70
2021/04/15 10:00:26;;;;;;;7.10;5.77;;;19.70;24.60;;;;;;5052295;28;20429;-71
2021/04/15 10:03:06;;;;;;;6.90;6.20;;;19.90;25.80;;;;;;5051175;28;20436;-71
2021/04/15 10:05:47;;;;;;;8.20;6.13;;;20.20;24.40;;;;;;5050331;28;20484;-71
2021/04/15 10:08:27;;;;;;;5.70;5.10;;;20.40;24.50;;;;;;5047847;28;20476;-71
2021/04/15 10:11:06;;;;;;;5.13;4.60;;;21.00;24.50;;;;;;5051772;28;20432;-72
2021/04/15 10:13:45;;;;;;;6.00;5.33;;;21.00;23.50;;;;;;5051741;28;20433;-71
2021/04/15 10:16:22;;;;;;;8.73;5.00;;;20.90;21.50;;;;;;5055324;28;20838;-71
2021/04/15 10:19:32;;;;;;;6.23;4.57;;;20.40;20.90;;;;;;5053125;28;20498;-71
2021/04/15 10:22:08;;;;;;;6.20;4.57;;;19.90;21.90;;;;;;5071299;28;20475;-71
2021/04/15 10:24:40;;;;;;;5.40;4.47;;;19.50;23.00;;;;;;5068013;28;20853;-71
2021/04/15 10:27:34;;;;;;;8.97;4.83;;;19.40;22.10;;;;;;5053394;28;20487;-71
2021/04/15 10:30:19;;;;;;;9.03;5.10;;;19.00;21.20;;;;;;5060689;28;20436;-71
2021/04/15 10:33:22;;;;;;;7.13;5.23;;;18.40;20.90;;;;;;5066823;28;20428;-71
2021/04/15 10:36:18;;;;;;;6.37;4.97;;;17.60;21.10;;;;;;5066646;28;20785;-71
2021/04/15 10:39:22;;;;;;;7.87;5.53;;;16.80;21.30;;;;;;5073007;28;20935;-71
2021/04/15 10:42:24;;;;;;;7.70;5.90;;;16.00;22.60;;;;;;5036558;28;20428;-70
2021/04/15 10:45:23;;;;;;;8.47;4.57;;;15.30;23.20;;;;;;5052759;28;20471;-70
2021/04/15 10:48:06;;;;;;;5.90;5.30;;;14.80;23.80;;;;;;5061910;28;20951;-70
2021/04/15 10:50:44;;;;;;;6.80;5.43;;;14.40;23.80;;;;;;5058819;28;20433;-71
2021/04/15 10:53:19;;;;;;;5.70;4.15;;;14.00;24.70;;;;;;5054607;28;20532;-71
2021/04/15 10:55:48;;;;;;;4.93;4.40;;;13.60;24.10;;;;;;5057617;28;20654;-70
2021/04/15 10:58:31;;;;;;;5.25;4.13;;;13.30;24.60;;;;;;5052079;28;20603;-70
2021/04/15 11:01:16;;;;;;;6.50;5.38;;;12.90;25.70;;;;;;5059751;28;20540;-70
2021/04/15 11:03:43;;;;;;;5.85;5.25;;;12.60;26.10;;;;;;5052132;28;20281;-71
2021/04/15 11:06:32;;;;;;;7.20;5.43;;;12.40;27.10;;;;;;5043926;28;20210;-71
2021/04/15 11:09:23;;;;;;;7.30;4.57;;;12.10;26.70;;;;;;5032868;28;20222;-71
2021/04/15 11:11:59;;;;;;;4.97;4.13;;;11.80;26.70;;;;;;5063928;28;20187;-71
2021/04/15 11:14:28;;;;;;;5.57;4.47;;;11.50;26.90;;;;;;5055510;28;20177;-70
2021/04/15 11:16:57;;;;;;;8.25;4.60;;;11.20;27.20;;;;;;5072725;28;20240;-70
2021/04/15 11:19:27;;;;;;;7.55;4.90;;;10.90;28.50;;;;;;5069233;28;20644;-70
2021/04/15 11:21:57;;;;;;;7.57;5.13;;;10.70;29.10;;;;;;5059940;28;20181;-70
2021/04/15 11:24:30;;;;;;;5.60;4.72;;;10.30;30.00;;;;;;5056992;28;20189;-71
2021/04/15 11:26:58;;;;;;;5.63;4.35;;;10.10;30.50;;;;;;5071452;28;20236;-71
2021/04/15 11:29:28;;;;;;;4.57;4.10;;;9.90;31.00;;;;;;5058009;28;20187;-72
2021/04/15 11:31:55;;;;;;;7.22;4.40;;;9.50;31.50;;;;;;5052177;28;20194;-71
2021/04/15 11:34:27;;;;;;;5.18;4.68;;;9.30;32.20;;;;;;5065085;28;20717;-71
2021/04/15 11:37:05;;;;;;;8.73;4.60;;;9.10;32.40;;;;;;5052894;28;20261;-72
2021/04/15 11:39:37;;;;;;;6.88;4.72;;;8.90;32.90;;;;;;5032556;28;20194;-71
2021/04/15 11:42:08;;;;;;;5.35;4.05;;;8.70;33.80;;;;;;5051713;28;20273;-71
2021/04/15 11:44:39;;;;;;;7.38;4.25;;;8.40;34.80;;;;;;5072354;28;20196;-71
2021/04/15 11:47:13;;;;;;;5.28;3.67;;;8.20;36.00;;;;;;5070681;28;20604;-71
2021/04/15 11:49:42;;;;;;;6.35;4.38;;;7.90;35.70;;;;;;5032569;28;20291;-71
2021/04/15 11:52:29;;;;;;;5.70;4.10;;;7.60;37.00;;;;;;5050949;28;20541;-71
2021/04/15 11:55:28;;;;;;;6.07;4.70;;;7.40;38.70;;;;;;5072274;28;20276;-71
2021/04/15 11:57:58;;;;;;;8.60;4.20;;;7.30;39.00;;;;;;5052634;28;20197;-71
2021/04/15 12:00:28;;;;;;;7.32;5.03;;;7.30;38.80;;;;;;5057270;28;20319;-71
2021/04/15 12:03:13;;;;;;;14.13;4.60;;;7.20;37.40;;;;;;5072226;28;20198;-71
2021/04/15 12:05:42;;;;;;;6.53;4.03;;;7.20;38.40;;;;;;5064940;28;20643;-71
2021/04/15 12:08:17;;;;;;;4.55;3.85;;;7.10;38.80;;;;;;5052399;28;20222;-71
2021/04/15 12:10:50;;;;;;;6.78;5.18;;;7.10;39.10;;;;;;5056914;28;20709;-72
2021/04/15 12:13:20;;;;;;;6.13;4.20;;;7.20;40.10;;;;;;5056316;28;20602;-71
2021/04/15 12:15:54;;;;;;;5.15;3.90;;;7.40;40.40;;;;;;5073354;28;20230;-71
2021/04/15 12:18:27;;;;;;;4.55;3.92;;;7.50;40.20;;;;;;5036186;28;20190;-71
2021/04/15 12:21:10;;;;;;;4.30;3.75;;;7.70;41.10;;;;;;5065192;28;20293;-71
2021/04/15 12:23:45;;;;;;;6.38;4.43;;;7.80;40.10;;;;;;5056141;28;20201;-71
2021/04/15 12:26:22;;;;;;;5.82;4.70;;;7.60;40.40;;;;;;5073410;28;20216;-71
2021/04/15 12:28:58;;;;;;;6.22;4.35;;;8.00;41.80;;;;;;5075966;28;20200;-71
2021/04/15 12:31:29;;;;;;;6.28;4.40;;;8.10;41.70;;;;;;5044361;28;20186;-71
2021/04/15 12:34:15;;;;;;;7.32;5.20;;;8.00;41.30;;;;;;5055307;28;20194;-71
2021/04/15 12:36:47;;;;;;;6.28;5.15;;;8.10;40.30;;;;;;5073701;28;20192;-71
2021/04/15 12:39:19;;;;;;;7.60;4.88;;;8.20;40.30;;;;;;5073606;28;20242;-71
2021/04/15 12:41:47;;;;;;;6.00;5.20;;;8.30;39.50;;;;;;5066000;28;20197;-71
2021/04/15 12:44:22;;;;;;;5.15;4.03;;;8.50;39.50;;;;;;5073957;28;20190;-71
2021/04/15 12:46:51;;;;;;;9.50;5.82;;;8.70;38.10;;;;;;5055549;28;20233;-71
2021/04/15 12:49:20;;;;;;;6.75;4.45;;;8.90;37.20;;;;;;5056426;28;20190;-72
2021/04/15 12:51:49;;;;;;;6.20;4.55;;;9.10;36.80;;;;;;5075107;28;20193;-72
2021/04/15 12:54:19;;;;;;;8.18;4.47;;;9.30;35.60;;;;;;5074634;28;20312;-72
2021/04/15 12:56:50;;;;;;;6.40;4.45;;;9.40;35.20;;;;;;5056024;28;20186;-71
2021/04/15 12:59:21;;;;;;;5.35;4.15;;;9.60;34.60;;;;;;5055278;28;20191;-71
2021/04/15 13:01:48;;;;;;;6.25;5.60;;;9.80;34.00;;;;;;5055201;28;20201;-71
2021/04/15 13:04:20;;;;;;;10.18;7.70;;;9.70;33.70;;;;;;5060341;28;20247;-71
2021/04/15 13:07:30;;;;;;;9.57;6.50;;;9.70;33.60;;;;;;5053839;28;20309;-71
2021/04/15 13:10:29;;;;;;;6.20;4.55;;;9.80;34.00;;;;;;5052839;28;20194;-70
2021/04/15 13:12:57;;;;;;;6.70;5.43;;;10.10;31.80;;;;;;5055456;28;20191;-71
2021/04/15 13:15:39;;;;;;;6.15;4.65;;;10.40;31.20;;;;;;5061303;28;20643;-70
2021/04/15 13:18:08;;;;;;;7.18;4.65;;;10.60;31.00;;;;;;5075319;28;20232;-70
2021/04/15 13:20:43;;;;;;;10.43;5.40;;;10.70;31.20;;;;;;5041645;28;20626;-71
2021/04/15 13:23:32;;;;;;;5.47;4.72;;;11.20;31.90;;;;;;5053956;28;20193;-71
2021/04/15 13:26:24;;;;;;;7.70;5.30;;;11.60;33.30;;;;;;5056420;28;20206;-73
2021/04/15 13:29:25;;;;;;;5.70;4.53;;;11.90;29.80;;;;;;5066721;28;20802;-72
2021/04/15 13:31:56;;;;;;;14.77;5.50;;;12.10;29.70;;;;;;5063648;28;20190;-72
2021/04/15 13:34:25;;;;;;;6.05;4.43;;;12.20;29.90;;;;;;5054143;28;20225;-71
2021/04/15 13:36:53;;;;;;;5.30;4.10;;;12.20;30.00;;;;;;5054403;28;20186;-72
2021/04/15 13:39:44;;;;;;;4.80;3.88;;;12.20;28.70;;;;;;5066091;28;20197;-72
2021/04/15 13:42:35;;;;;;;4.93;4.20;;;12.10;28.50;;;;;;5049168;28;20195;-71
2021/04/15 13:45:09;;;;;;;6.47;4.60;;;12.00;27.90;;;;;;5063521;28;20190;-71
2021/04/15 13:47:51;;;;;;;6.35;4.00;;;11.90;28.10;;;;;;5055610;28;20210;-70